createdAt,value
2018-11-27T00:01:12.478Z,2.67
2018-11-27T00:03:47.214Z,2.61
2018-11-27T00:06:16.800Z,2.59
2018-11-27T00:08:46.654Z,2.61
2018-11-27T00:11:16.160Z,2.58
2018-11-27T00:13:44.635Z,2.60
2018-11-27T00:16:13.634Z,2.62
2018-11-27T00:18:42.795Z,2.56
2018-11-27T00:21:12.172Z,2.58
2018-11-27T00:23:41.713Z,2.59
2018-11-27T00:26:10.727Z,2.59
2018-11-27T00:28:40.339Z,2.56
2018-11-27T00:31:08.764Z,2.59
2018-11-27T00:33:38.339Z,2.58
2018-11-27T00:36:08.712Z,2.57
2018-11-27T00:38:37.767Z,2.55
2018-11-27T00:41:07.341Z,2.57
2018-11-27T00:43:36.505Z,2.53
2018-11-27T00:46:05.034Z,2.58
2018-11-27T00:48:34.643Z,2.51
2018-11-27T00:51:05.750Z,2.49
2018-11-27T00:53:35.536Z,2.53
2018-11-27T00:56:05.061Z,2.51
2018-11-27T00:58:34.776Z,2.52
2018-11-27T01:01:05.425Z,2.45
2018-11-27T01:03:34.513Z,2.46
2018-11-27T01:06:04.005Z,2.48
2018-11-27T01:08:32.875Z,2.41
2018-11-27T01:11:01.317Z,2.42
2018-11-27T01:13:29.984Z,2.43
2018-11-27T01:15:58.913Z,2.40
2018-11-27T01:18:27.364Z,2.42
2018-11-27T01:20:56.433Z,2.41
2018-11-27T01:23:25.134Z,2.40
2018-11-27T01:25:54.177Z,2.39
2018-11-27T01:28:23.128Z,2.40
2018-11-27T01:30:52.432Z,2.38
2018-11-27T01:33:29.796Z,2.38
2018-11-27T01:35:58.601Z,2.33
2018-11-27T01:38:27.348Z,2.33
2018-11-27T01:40:55.992Z,2.34
2018-11-27T01:43:24.743Z,2.33
2018-11-27T01:45:53.909Z,2.30
2018-11-27T01:48:22.702Z,2.34
2018-11-27T01:50:51.429Z,2.36
2018-11-27T01:53:19.887Z,2.34
2018-11-27T01:55:48.331Z,2.36
2018-11-27T01:58:17.167Z,2.34
2018-11-27T02:00:46.057Z,2.30
2018-11-27T02:03:14.434Z,2.27
2018-11-27T02:05:42.905Z,2.31
2018-11-27T02:08:11.828Z,2.29
2018-11-27T02:10:40.661Z,2.27
2018-11-27T02:13:09.347Z,2.26
2018-11-27T02:15:37.798Z,2.25
2018-11-27T02:18:07.963Z,2.23
2018-11-27T02:20:37.281Z,2.22
2018-11-27T02:23:06.659Z,2.20
2018-11-27T02:25:35.511Z,2.22
2018-11-27T02:28:04.165Z,2.19
2018-11-27T02:30:32.926Z,2.22
2018-11-27T02:33:01.630Z,2.18
2018-11-27T02:35:30.379Z,2.15
2018-11-27T02:37:59.549Z,2.13
2018-11-27T02:40:28.102Z,2.13
2018-11-27T02:42:57.607Z,2.12
2018-11-27T02:45:26.634Z,2.16
2018-11-27T02:47:56.071Z,2.12
2018-11-27T02:50:25.545Z,2.08
2018-11-27T02:52:54.756Z,2.08
2018-11-27T02:55:24.584Z,2.07
2018-11-27T02:57:53.391Z,2.02
2018-11-27T03:00:25.926Z,2.04
2018-11-27T03:02:55.514Z,2.01
2018-11-27T03:05:31.392Z,1.97
2018-11-27T03:08:00.299Z,1.96
2018-11-27T03:10:28.725Z,1.92
2018-11-27T03:12:57.518Z,1.88
2018-11-27T03:15:26.514Z,1.84
2018-11-27T03:17:55.605Z,1.81
2018-11-27T03:20:25.578Z,1.71
2018-11-27T03:22:54.187Z,1.62
2018-11-27T03:25:23.818Z,1.54
2018-11-27T03:27:53.781Z,1.53
2018-11-27T03:30:23.804Z,1.46
2018-11-27T03:32:52.765Z,1.41
2018-11-27T03:35:22.720Z,1.26
2018-11-27T03:37:51.699Z,1.23
2018-11-27T03:40:22.617Z,1.27
2018-11-27T03:42:51.109Z,1.18
2018-11-27T03:45:20.547Z,1.17
2018-11-27T03:48:20.402Z,1.08
2018-11-27T03:50:49.245Z,0.98
2018-11-27T03:53:18.597Z,0.98
2018-11-27T03:55:49.099Z,0.97
2018-11-27T03:58:17.822Z,0.83
2018-11-27T04:00:47.134Z,0.86
2018-11-27T04:03:15.913Z,0.83
2018-11-27T04:05:45.123Z,0.84
2018-11-27T04:08:14.071Z,0.80
2018-11-27T04:10:42.619Z,0.78
2018-11-27T04:13:11.071Z,0.67
2018-11-27T04:15:39.613Z,0.67
2018-11-27T04:18:08.106Z,0.62
2018-11-27T04:20:36.600Z,0.53
2018-11-27T04:23:05.183Z,0.53
2018-11-27T04:25:33.718Z,0.43
2018-11-27T04:28:02.150Z,0.36
2018-11-27T04:30:32.157Z,0.44
2018-11-27T04:33:00.959Z,0.36
2018-11-27T04:35:30.432Z,0.29
2018-11-27T04:37:59.689Z,0.31
2018-11-27T04:40:28.671Z,0.19
2018-11-27T04:42:57.721Z,0.12
2018-11-27T04:45:27.394Z,0.04
2018-11-27T04:47:56.672Z,0.02
2018-11-27T04:50:25.676Z,-0.02
2018-11-27T04:52:54.570Z,-0.16
2018-11-27T04:55:23.418Z,-0.24
2018-11-27T05:01:26.013Z,-0.35
2018-11-27T05:03:55.921Z,-0.34
2018-11-27T05:06:25.770Z,-0.36
2018-11-27T05:08:56.228Z,-0.50
2018-11-27T05:11:27.467Z,-0.45
2018-11-27T05:13:56.592Z,-0.48
2018-11-27T05:16:27.255Z,-0.52
2018-11-27T05:18:57.684Z,-0.60
2018-11-27T05:21:27.781Z,-0.53
2018-11-27T05:23:58.099Z,-0.70
2018-11-27T05:26:27.610Z,-0.69
2018-11-27T05:28:57.583Z,-0.75
2018-11-27T05:31:28.015Z,-0.69
2018-11-27T05:33:57.846Z,-0.68
2018-11-27T05:36:27.882Z,-0.68
2018-11-27T05:38:57.809Z,-0.64
2018-11-27T05:41:27.818Z,-0.72
2018-11-27T05:43:58.460Z,-0.74
2018-11-27T05:46:29.080Z,-0.72
2018-11-27T05:48:59.564Z,-0.63
2018-11-27T05:51:30.386Z,-0.64
2018-11-27T05:54:00.877Z,-0.64
2018-11-27T05:56:31.447Z,-0.72
2018-11-27T05:59:02.186Z,-0.71
2018-11-27T06:01:30.799Z,-0.92
2018-11-27T06:04:00.950Z,-0.88
2018-11-27T06:06:31.898Z,-0.86
2018-11-27T06:09:01.547Z,-0.85
2018-11-27T06:11:30.921Z,-0.81
2018-11-27T06:13:59.447Z,-0.88
2018-11-27T06:16:28.906Z,-0.94
2018-11-27T06:18:57.458Z,-1.01
2018-11-27T06:21:28.612Z,-0.94
2018-11-27T06:23:59.910Z,-0.92
2018-11-27T06:26:30.608Z,-0.94
2018-11-27T06:29:01.397Z,-0.88
2018-11-27T06:31:31.550Z,-0.91
2018-11-27T06:34:00.417Z,-0.90
2018-11-27T06:36:37.803Z,-0.84
2018-11-27T06:39:08.813Z,-0.88
2018-11-27T06:41:37.394Z,-0.86
2018-11-27T06:44:08.642Z,-0.87
2018-11-27T06:46:37.398Z,-0.89
2018-11-27T06:49:08.327Z,-0.89
2018-11-27T06:51:36.800Z,-0.90
2018-11-27T06:54:06.537Z,-0.92
2018-11-27T06:56:35.188Z,-0.92
2018-11-27T06:59:03.725Z,-0.94
2018-11-27T07:01:32.330Z,-0.88
2018-11-27T07:04:00.724Z,-0.87
2018-11-27T07:06:30.559Z,-0.87
2018-11-27T07:08:59.168Z,-0.82
2018-11-27T07:11:27.599Z,-0.80
2018-11-27T07:13:56.068Z,-0.76
2018-11-27T07:16:24.524Z,-0.80
2018-11-27T07:18:53.001Z,-0.80
2018-11-27T07:21:21.384Z,-0.77
2018-11-27T07:23:50.554Z,-0.75
2018-11-27T07:26:19.024Z,-0.75
2018-11-27T07:28:47.529Z,-0.74
2018-11-27T07:31:16.185Z,-0.70
2018-11-27T07:33:44.646Z,-0.68
2018-11-27T07:36:13.148Z,-0.65
2018-11-27T07:38:41.914Z,-0.62
2018-11-27T07:41:10.703Z,-0.55
2018-11-27T07:43:39.697Z,-0.60
2018-11-27T07:46:08.948Z,-0.51
2018-11-27T07:48:37.708Z,-0.55
2018-11-27T07:51:07.849Z,-0.55
2018-11-27T07:53:37.205Z,-0.64
2018-11-27T07:56:06.628Z,-0.55
2018-11-27T07:58:35.305Z,-0.60
2018-11-27T08:01:04.222Z,-0.60
2018-11-27T08:03:33.097Z,-0.55
2018-11-27T08:06:02.043Z,-0.53
2018-11-27T08:08:31.027Z,-0.60
2018-11-27T08:10:59.967Z,-0.52
2018-11-27T08:13:28.879Z,-0.52
2018-11-27T08:15:58.319Z,-0.59
2018-11-27T08:18:27.364Z,-0.54
2018-11-27T08:20:56.268Z,-0.54
2018-11-27T08:23:25.059Z,-0.51
2018-11-27T08:25:53.866Z,-0.50
2018-11-27T08:28:22.729Z,-0.53
2018-11-27T08:30:51.833Z,-0.45
2018-11-27T08:33:20.739Z,-0.37
2018-11-27T08:35:50.279Z,-0.31
2018-11-27T08:38:49.547Z,-0.37
2018-11-27T08:41:18.403Z,-0.34
2018-11-27T08:43:47.573Z,-0.31
2018-11-27T08:46:16.704Z,-0.35
2018-11-27T08:48:46.201Z,-0.33
2018-11-27T08:51:14.974Z,-0.31
2018-11-27T08:53:43.932Z,-0.16
2018-11-27T08:56:12.845Z,-0.11
2018-11-27T08:58:41.819Z,0.10
2018-11-27T09:01:11.226Z,0.15
2018-11-27T09:03:40.531Z,0.17
2018-11-27T09:06:09.487Z,0.23
2018-11-27T09:08:38.528Z,0.47
2018-11-27T09:11:07.739Z,0.52
2018-11-27T09:13:37.444Z,0.78
2018-11-27T09:16:07.120Z,0.90
2018-11-27T09:18:36.430Z,0.70
2018-11-27T09:21:05.232Z,0.95
2018-11-27T09:23:34.179Z,0.62
2018-11-27T09:26:02.933Z,0.74
2018-11-27T09:28:31.762Z,0.69
2018-11-27T09:31:00.846Z,0.83
2018-11-27T09:33:29.881Z,0.88
2018-11-27T09:35:58.677Z,1.11
2018-11-27T09:38:27.420Z,1.11
2018-11-27T09:40:56.000Z,1.20
2018-11-27T09:43:24.516Z,1.40
2018-11-27T09:45:53.066Z,1.62
2018-11-27T09:48:21.616Z,1.78
2018-11-27T09:50:50.064Z,1.85
2018-11-27T09:53:18.856Z,1.69
2018-11-27T09:55:47.676Z,1.69
2018-11-27T09:58:16.521Z,1.70
2018-11-27T10:00:45.314Z,1.66
2018-11-27T10:03:15.529Z,1.56
2018-11-27T10:05:44.395Z,1.70
2018-11-27T10:08:13.291Z,1.79
2018-11-27T10:10:42.204Z,1.91
2018-11-27T10:13:11.050Z,1.90
2018-11-27T10:15:39.800Z,1.95
2018-11-27T10:18:08.840Z,1.89
2018-11-27T10:20:39.912Z,2.04
2018-11-27T10:23:12.580Z,1.99
2018-11-27T10:25:41.337Z,1.82
2018-11-27T10:28:10.168Z,1.93
2018-11-27T10:30:39.345Z,1.98
2018-11-27T10:33:11.396Z,1.89
2018-11-27T10:35:45.405Z,1.88
2018-11-27T10:38:15.257Z,1.83
2018-11-27T10:40:43.944Z,1.91
2018-11-27T10:43:12.443Z,1.99
2018-11-27T10:45:40.928Z,1.77
2018-11-27T10:48:09.589Z,1.77
2018-11-27T10:50:38.522Z,1.62
2018-11-27T10:53:08.929Z,1.84
2018-11-27T10:55:37.871Z,1.82
2018-11-27T10:58:06.731Z,1.93
2018-11-27T11:00:40.404Z,1.60
2018-11-27T11:03:24.943Z,1.62
2018-11-27T11:05:55.286Z,1.72
2018-11-27T11:08:23.843Z,1.58
2018-11-27T11:10:52.505Z,1.61
2018-11-27T11:13:22.001Z,1.58
2018-11-27T11:15:50.943Z,1.50
2018-11-27T11:18:19.576Z,1.60
2018-11-27T11:20:48.274Z,1.60
2018-11-27T11:23:16.831Z,1.51
2018-11-27T11:25:45.317Z,1.55
2018-11-27T11:28:13.675Z,1.48
2018-11-27T11:30:42.095Z,1.52
2018-11-27T11:33:10.861Z,1.54
2018-11-27T11:35:39.358Z,1.50
2018-11-27T11:38:07.757Z,1.56
2018-11-27T11:40:36.792Z,1.55
2018-11-27T11:43:06.028Z,1.54
2018-11-27T11:45:34.431Z,1.60
2018-11-27T11:48:03.365Z,1.39
2018-11-27T11:50:33.215Z,1.47
2018-11-27T11:53:07.856Z,1.41
2018-11-27T11:55:36.780Z,1.49
2018-11-27T11:58:06.045Z,1.48
2018-11-27T12:00:38.190Z,1.50
2018-11-27T12:03:07.917Z,1.46
2018-11-27T12:05:38.249Z,1.46
2018-11-27T12:08:07.860Z,1.52
2018-11-27T12:10:37.473Z,1.48
2018-11-27T12:13:07.744Z,1.59
2018-11-27T12:15:37.610Z,1.37
2018-11-27T12:18:07.247Z,1.40
2018-11-27T12:20:36.038Z,1.50
2018-11-27T12:23:05.630Z,1.54
2018-11-27T12:25:34.386Z,1.42
2018-11-27T12:28:03.225Z,1.45
2018-11-27T12:30:32.137Z,1.51
2018-11-27T12:33:00.831Z,1.43
2018-11-27T12:35:29.729Z,1.39
2018-11-27T12:37:58.670Z,1.40
2018-11-27T12:40:28.691Z,1.42
2018-11-27T12:42:57.713Z,1.45
2018-11-27T12:45:29.037Z,1.51
2018-11-27T12:47:58.878Z,1.37
2018-11-27T12:50:38.694Z,1.46
2018-11-27T12:53:08.584Z,1.51
2018-11-27T12:55:39.810Z,1.52
2018-11-27T12:58:08.774Z,1.56
2018-11-27T13:00:37.533Z,1.42
2018-11-27T13:03:06.709Z,1.45
2018-11-27T13:05:38.963Z,1.49
2018-11-27T13:08:23.532Z,1.52
2018-11-27T13:10:52.268Z,1.53
2018-11-27T13:13:20.877Z,1.62
2018-11-27T13:15:49.528Z,1.55
2018-11-27T13:18:18.161Z,1.61
2018-11-27T13:20:46.769Z,1.47
2018-11-27T13:23:15.510Z,1.55
2018-11-27T13:25:44.114Z,1.56
2018-11-27T13:28:14.014Z,1.66
2018-11-27T13:30:46.987Z,1.63
2018-11-27T13:33:23.501Z,1.66
2018-11-27T13:35:52.689Z,1.63
2018-11-27T13:38:21.091Z,1.62
2018-11-27T13:40:49.876Z,1.60
2018-11-27T13:43:22.860Z,1.64
2018-11-27T13:45:51.688Z,1.69
2018-11-27T13:48:20.911Z,1.70
2018-11-27T13:50:49.600Z,1.74
2018-11-27T13:53:18.228Z,1.67
2018-11-27T13:55:46.741Z,1.70
2018-11-27T13:58:15.189Z,1.72
2018-11-27T14:00:43.617Z,1.75
2018-11-27T14:03:12.141Z,1.79
2018-11-27T14:05:40.627Z,1.73
2018-11-27T14:08:10.048Z,1.75
2018-11-27T14:10:39.232Z,1.76
2018-11-27T14:13:09.166Z,1.73
2018-11-27T14:15:38.289Z,1.78
2018-11-27T14:18:07.919Z,1.80
2018-11-27T14:20:36.973Z,1.75
2018-11-27T14:23:06.328Z,1.70
2018-11-27T14:25:34.997Z,1.72
2018-11-27T14:28:03.777Z,1.67
2018-11-27T14:30:32.539Z,1.65
2018-11-27T14:33:01.273Z,1.63
2018-11-27T14:35:30.349Z,1.59
2018-11-27T14:37:59.020Z,1.61
2018-11-27T14:40:29.095Z,1.58
2018-11-27T14:42:57.533Z,1.55
2018-11-27T14:45:27.111Z,1.50
2018-11-27T14:47:56.693Z,1.52
2018-11-27T14:50:25.152Z,1.48
2018-11-27T14:52:53.701Z,1.47
2018-11-27T14:55:28.323Z,1.41
2018-11-27T14:57:57.220Z,1.42
2018-11-27T15:00:27.777Z,1.39
2018-11-27T15:02:57.324Z,1.39
2018-11-27T15:05:32.216Z,1.35
2018-11-27T15:08:01.067Z,1.31
2018-11-27T15:10:30.157Z,1.26
2018-11-27T15:12:58.578Z,1.26
2018-11-27T15:15:27.210Z,1.20
2018-11-27T15:17:57.277Z,1.19
2018-11-27T15:20:25.843Z,1.15
2018-11-27T15:22:54.355Z,1.14
2018-11-27T15:25:22.842Z,1.09
2018-11-27T15:27:51.778Z,1.07
2018-11-27T15:30:23.229Z,1.02
2018-11-27T15:32:52.896Z,0.98
2018-11-27T15:35:21.357Z,0.96
2018-11-27T15:37:51.723Z,0.91
2018-11-27T15:40:24.413Z,0.96
2018-11-27T15:42:53.263Z,0.86
2018-11-27T15:45:26.838Z,0.86
2018-11-27T15:47:55.511Z,0.80
2018-11-27T15:50:26.543Z,0.75
2018-11-27T15:53:25.581Z,0.76
2018-11-27T15:55:54.132Z,0.78
2018-11-27T15:58:24.151Z,0.76
2018-11-27T16:00:53.825Z,0.75
2018-11-27T16:03:24.313Z,0.75
2018-11-27T16:05:54.562Z,0.69
2018-11-27T16:08:24.677Z,0.64
2018-11-27T16:10:53.499Z,0.62
2018-11-27T16:13:24.405Z,0.58
2018-11-27T16:15:54.632Z,0.57
2018-11-27T16:18:25.415Z,0.58
2018-11-27T16:20:54.959Z,0.58
2018-11-27T16:23:25.904Z,0.55
2018-11-27T16:25:55.422Z,0.48
2018-11-27T16:28:26.694Z,0.44
2018-11-27T16:30:57.236Z,0.48
2018-11-27T16:33:26.380Z,0.39
2018-11-27T16:35:58.137Z,0.44
2018-11-27T16:38:31.384Z,0.40
2018-11-27T16:41:00.336Z,0.31
2018-11-27T16:43:29.111Z,0.35
2018-11-27T16:45:57.612Z,0.34
2018-11-27T16:48:26.518Z,0.34
2018-11-27T16:50:56.707Z,0.20
2018-11-27T16:53:25.608Z,0.11
2018-11-27T16:55:54.077Z,0.02
2018-11-27T16:58:22.526Z,0.04
2018-11-27T17:00:51.019Z,-0.06
2018-11-27T17:03:19.515Z,-0.10
2018-11-27T17:05:47.937Z,-0.15
2018-11-27T17:08:16.534Z,-0.19
2018-11-27T17:10:46.421Z,-0.20
2018-11-27T17:13:15.918Z,-0.25
2018-11-27T17:15:44.440Z,-0.27
2018-11-27T17:18:13.877Z,-0.25
2018-11-27T17:20:43.915Z,-0.29
2018-11-27T17:23:13.884Z,-0.33
2018-11-27T17:25:42.291Z,-0.36
2018-11-27T17:28:15.297Z,-0.37
2018-11-27T17:30:48.634Z,-0.31
2018-11-27T17:33:21.533Z,-0.41
2018-11-27T17:35:51.186Z,-0.33
2018-11-27T17:38:20.575Z,-0.43
2018-11-27T17:40:50.171Z,-0.41
2018-11-27T17:43:18.565Z,-0.37
2018-11-27T17:45:47.119Z,-0.41
2018-11-27T17:48:15.653Z,-0.42
2018-11-27T17:50:44.148Z,-0.33
2018-11-27T17:53:12.658Z,-0.34
2018-11-27T17:55:41.791Z,-0.34
2018-11-27T17:58:10.765Z,-0.33
2018-11-27T18:00:39.361Z,-0.33
2018-11-27T18:03:09.100Z,-0.34
2018-11-27T18:05:37.569Z,-0.39
2018-11-27T18:08:07.331Z,-0.36
2018-11-27T18:10:36.485Z,-0.38
2018-11-27T18:13:07.595Z,-0.40
2018-11-27T18:15:38.577Z,-0.38
2018-11-27T18:18:09.367Z,-0.38
2018-11-27T18:20:39.608Z,-0.37
2018-11-27T18:23:09.373Z,-0.34
2018-11-27T18:25:38.348Z,-0.40
2018-11-27T18:28:07.973Z,-0.44
2018-11-27T18:30:38.157Z,-0.52
2018-11-27T18:33:08.033Z,-0.49
2018-11-27T18:35:38.361Z,-0.55
2018-11-27T18:38:08.199Z,-0.70
2018-11-27T18:40:38.425Z,-0.72
2018-11-27T18:43:07.643Z,-0.67
2018-11-27T18:45:37.193Z,-0.63
2018-11-27T18:48:06.610Z,-0.65
2018-11-27T18:50:36.246Z,-0.66
2018-11-27T18:53:05.101Z,-0.67
2018-11-27T18:55:33.962Z,-0.68
2018-11-27T18:58:04.542Z,-0.67
2018-11-27T19:00:33.783Z,-0.67
2018-11-27T19:03:02.257Z,-0.68
2018-11-27T19:05:31.702Z,-0.73
2018-11-27T19:08:00.175Z,-0.73
2018-11-27T19:10:31.951Z,-0.73
2018-11-27T19:13:00.834Z,-0.72
2018-11-27T19:15:32.988Z,-0.75
2018-11-27T19:18:03.536Z,-0.77
2018-11-27T19:20:33.087Z,-0.69
2018-11-27T19:23:02.517Z,-0.72
2018-11-27T19:25:31.381Z,-0.69
2018-11-27T19:28:02.265Z,-0.71
2018-11-27T19:30:32.263Z,-0.83
2018-11-27T19:32:59.050Z,-0.76
2018-11-27T19:35:27.681Z,-0.78
2018-11-27T19:37:57.001Z,-0.78
2018-11-27T19:40:26.996Z,-0.80
2018-11-27T19:42:57.141Z,-0.83
2018-11-27T19:45:27.282Z,-0.83
2018-11-27T19:47:56.257Z,-0.80
2018-11-27T19:50:24.796Z,-0.83
2018-11-27T19:52:56.101Z,-0.88
2018-11-27T19:55:24.544Z,-0.86
2018-11-27T19:57:55.196Z,-0.89
2018-11-27T20:00:26.880Z,-0.88
2018-11-27T20:02:55.734Z,-0.91
2018-11-27T20:05:26.442Z,-0.96
2018-11-27T20:07:54.905Z,-1.00
2018-11-27T20:10:27.114Z,-0.98
2018-11-27T20:12:55.586Z,-1.01
2018-11-27T20:15:26.082Z,-1.00
2018-11-27T20:17:56.004Z,-1.02
2018-11-27T20:20:25.528Z,-1.01
2018-11-27T20:22:54.751Z,-1.08
2018-11-27T20:28:24.697Z,-1.14
2018-11-27T20:30:54.263Z,-1.13
2018-11-27T20:33:24.703Z,-1.13
2018-11-27T20:35:56.047Z,-1.14
2018-11-27T20:38:26.277Z,-1.15
2018-11-27T20:40:56.461Z,-1.14
2018-11-27T20:43:27.415Z,-1.22
2018-11-27T20:45:56.444Z,-1.22
2018-11-27T20:48:25.527Z,-1.22
2018-11-27T20:50:55.821Z,-1.20
2018-11-27T20:53:24.319Z,-1.11
2018-11-27T20:55:54.241Z,-1.19
2018-11-27T20:58:23.850Z,-1.23
2018-11-27T21:00:55.108Z,-1.25
2018-11-27T21:03:26.039Z,-1.27
2018-11-27T21:05:54.987Z,-1.25
2018-11-27T21:11:08.383Z,-1.32
2018-11-27T21:13:35.082Z,-1.37
2018-11-27T21:16:03.674Z,-1.40
2018-11-27T21:18:34.101Z,-1.39
2018-11-27T21:21:04.762Z,-1.42
2018-11-27T21:23:33.407Z,-1.40
2018-11-27T21:26:06.246Z,-1.48
2018-11-27T21:28:35.789Z,-1.45
2018-11-27T21:31:06.779Z,-1.43
2018-11-27T21:33:36.715Z,-1.50
2018-11-27T21:36:05.804Z,-1.48
2018-11-27T21:38:34.413Z,-1.56
2018-11-27T21:41:03.403Z,-1.53
2018-11-27T21:43:33.309Z,-1.56
2018-11-27T21:46:02.889Z,-1.60
2018-11-27T21:48:33.105Z,-1.61
2018-11-27T21:51:03.158Z,-1.54
2018-11-27T21:53:32.821Z,-1.58
2018-11-27T21:56:02.211Z,-1.58
2018-11-27T21:58:34.420Z,-1.63
2018-11-27T22:01:03.069Z,-1.59
2018-11-27T22:03:32.889Z,-1.65
2018-11-27T22:06:02.286Z,-1.60
2018-11-27T22:08:30.869Z,-1.60
2018-11-27T22:11:02.756Z,-1.66
2018-11-27T22:13:33.713Z,-1.69
2018-11-27T22:16:02.334Z,-1.67
2018-11-27T22:18:30.991Z,-1.61
2018-11-27T22:20:59.490Z,-1.63
2018-11-27T22:23:30.031Z,-1.67
2018-11-27T22:26:11.340Z,-1.66
2018-11-27T22:29:12.016Z,-1.65
2018-11-27T22:31:41.189Z,-1.66
2018-11-27T22:34:09.987Z,-1.62
2018-11-27T22:36:38.601Z,-1.63
2018-11-27T22:39:08.965Z,-1.75
2018-11-27T22:41:40.295Z,-1.79
2018-11-27T22:44:09.114Z,-1.77
2018-11-27T22:46:40.337Z,-1.73
2018-11-27T22:49:11.333Z,-1.79
2018-11-27T22:51:42.334Z,-1.76
2018-11-27T22:54:12.403Z,-1.72
2018-11-27T22:56:42.576Z,-1.75
2018-11-27T22:59:13.300Z,-1.81
2018-11-27T23:01:43.132Z,-1.78
2018-11-27T23:04:11.846Z,-1.92
2018-11-27T23:06:42.037Z,-1.85
2018-11-27T23:09:11.440Z,-1.85
2018-11-27T23:11:41.452Z,-1.89
2018-11-27T23:14:10.857Z,-1.88
2018-11-27T23:16:41.590Z,-1.87
2018-11-27T23:19:11.811Z,-1.81
2018-11-27T23:21:42.277Z,-1.83
2018-11-27T23:24:13.588Z,-1.86
2018-11-27T23:26:43.489Z,-1.88
2018-11-27T23:29:13.043Z,-1.88
2018-11-27T23:31:42.477Z,-1.83
2018-11-27T23:34:12.377Z,-1.86
2018-11-27T23:36:41.668Z,-1.89
2018-11-27T23:39:11.232Z,-1.87
2018-11-27T23:41:40.837Z,-1.88
2018-11-27T23:44:10.203Z,-1.85
2018-11-27T23:46:41.556Z,-1.87
2018-11-27T23:49:11.812Z,-1.84
2018-11-27T23:51:42.952Z,-1.87
2018-11-27T23:54:13.586Z,-1.85
2018-11-27T23:56:48.599Z,-1.95
2018-11-27T23:59:14.522Z,-1.90
